Oyster Creek, Texas
Current Conditions -  °F | °C
As of 7:53 PM on Saturday 25 Oct 2014 (Local Time) from KLBX Reporting Station
Clear Clear  
Wind Chill: 64°   Ceiling: Unl
Heat Index: 64°   Visibility: 10mi
Dew Point: 61°   Wind: 3mph
Humidity: 90%   Direction: 200°SSW
Pressure: 30.11"   Gusts: NA
Location:  28.9433°N, 95.4584°W
Report Text: KLBX 260053Z AUTO 20003KT 10SM CLR 18/16 A3011 RMK AO2 SLP195 T01780161
Loading
Personal Weather Stations






























Interactive Weather Map
Tropical Storm Tracking
New forecast layout! Learn more

10-Day Weather Forecast

Advertisements
Track Severe Weather on mobile